createdAt,value
2023-05-11T00:01:41.117Z,13.60
2023-05-11T00:04:09.652Z,13.60
2023-05-11T00:06:37.854Z,13.60
2023-05-11T00:09:06.713Z,13.50
2023-05-11T00:11:34.805Z,13.60
2023-05-11T00:14:03.247Z,13.50
2023-05-11T00:16:32.892Z,13.50
2023-05-11T00:19:01.163Z,13.50
2023-05-11T00:21:29.349Z,13.60
2023-05-11T00:23:57.547Z,13.60
2023-05-11T00:26:26.794Z,13.50
2023-05-11T00:28:55.008Z,13.60
2023-05-11T00:31:23.548Z,13.60
2023-05-11T00:33:54.510Z,13.60
2023-05-11T00:36:22.670Z,13.50
2023-05-11T00:38:50.781Z,13.50
2023-05-11T00:41:18.801Z,13.50
2023-05-11T00:43:46.954Z,13.50
2023-05-11T00:46:15.275Z,13.50
2023-05-11T00:48:44.292Z,13.50
2023-05-11T00:51:14.479Z,13.40
2023-05-11T00:53:42.693Z,13.40
2023-05-11T00:56:10.865Z,13.20
2023-05-11T00:58:39.003Z,13.20
2023-05-11T01:01:07.242Z,13.20
2023-05-11T01:03:36.504Z,13.20
2023-05-11T01:06:11.408Z,13.30
2023-05-11T01:08:46.521Z,13.30
2023-05-11T01:11:21.920Z,13.20
2023-05-11T01:13:53.840Z,13.20
2023-05-11T01:16:24.973Z,13.20
2023-05-11T01:18:59.532Z,13.20
2023-05-11T01:21:31.481Z,13.10
2023-05-11T01:24:29.863Z,13.10
2023-05-11T01:27:32.854Z,13.10
2023-05-11T01:30:27.100Z,13.00
2023-05-11T01:32:56.930Z,13.00
2023-05-11T01:35:27.845Z,13.00
2023-05-11T01:37:59.480Z,13.00
2023-05-11T01:40:33.481Z,13.00
2023-05-11T01:43:04.889Z,13.00
2023-05-11T01:45:37.944Z,12.90
2023-05-11T01:48:09.949Z,12.90
2023-05-11T01:50:39.803Z,12.90
2023-05-11T01:53:09.720Z,12.80
2023-05-11T01:55:38.981Z,12.80
2023-05-11T01:58:09.375Z,12.80
2023-05-11T02:00:39.943Z,12.80
2023-05-11T02:03:09.384Z,12.90
2023-05-11T02:05:40.058Z,12.90
2023-05-11T02:08:09.427Z,12.90
2023-05-11T02:10:39.541Z,12.90
2023-05-11T02:13:09.869Z,12.90
2023-05-11T02:15:41.487Z,12.90
2023-05-11T02:18:13.628Z,13.00
2023-05-11T02:20:44.537Z,13.00
2023-05-11T02:23:13.677Z,13.00
2023-05-11T02:25:43.051Z,13.00
2023-05-11T02:28:11.603Z,13.00
2023-05-11T02:30:46.736Z,13.00
2023-05-11T02:33:20.082Z,12.90
2023-05-11T02:35:48.650Z,13.00
2023-05-11T02:38:18.101Z,13.00
2023-05-11T02:40:49.114Z,13.10
2023-05-11T02:43:23.274Z,13.00
2023-05-11T02:45:58.392Z,13.10
2023-05-11T02:48:31.636Z,13.00
2023-05-11T02:51:02.997Z,13.00
2023-05-11T02:53:33.558Z,13.00
2023-05-11T02:56:02.352Z,13.00
2023-05-11T02:58:30.910Z,12.90
2023-05-11T03:01:01.152Z,12.90
2023-05-11T03:03:29.687Z,12.90
2023-05-11T03:05:57.832Z,12.90
2023-05-11T03:08:26.314Z,12.90
2023-05-11T03:10:55.050Z,12.80
2023-05-11T03:13:25.366Z,12.80
2023-05-11T03:15:54.124Z,12.80
2023-05-11T03:18:24.401Z,12.70
2023-05-11T03:20:53.042Z,12.70
2023-05-11T03:23:21.909Z,12.60
2023-05-11T03:25:50.453Z,12.60
2023-05-11T03:28:20.315Z,12.50
2023-05-11T03:30:50.406Z,12.50
2023-05-11T03:33:18.688Z,12.50
2023-05-11T03:35:50.858Z,12.40
2023-05-11T03:38:21.964Z,12.30
2023-05-11T03:40:52.407Z,12.30
2023-05-11T03:43:21.988Z,12.30
2023-05-11T03:45:53.434Z,12.30
2023-05-11T03:48:22.173Z,12.30
2023-05-11T03:50:52.232Z,12.20
2023-05-11T03:53:21.179Z,12.20
2023-05-11T03:55:50.093Z,12.10
2023-05-11T03:58:18.302Z,12.10
2023-05-11T04:00:47.679Z,12.00
2023-05-11T04:03:16.319Z,12.00
2023-05-11T04:05:44.557Z,12.00
2023-05-11T04:08:14.131Z,12.00
2023-05-11T04:10:42.257Z,12.00
2023-05-11T04:13:10.371Z,12.00
2023-05-11T04:15:38.497Z,12.00
2023-05-11T04:18:06.738Z,12.00
2023-05-11T04:20:34.824Z,12.00
2023-05-11T04:23:03.814Z,12.00
2023-05-11T04:25:33.248Z,12.00
2023-05-11T04:28:01.328Z,12.00
2023-05-11T04:30:29.342Z,12.00
2023-05-11T04:32:57.493Z,12.10
2023-05-11T04:35:26.052Z,12.10
2023-05-11T04:37:54.131Z,12.10
2023-05-11T04:40:22.310Z,12.10
2023-05-11T04:42:51.786Z,12.20
2023-05-11T04:45:20.283Z,12.20
2023-05-11T04:47:48.454Z,12.30
2023-05-11T04:50:17.150Z,12.30
2023-05-11T04:52:45.554Z,12.40
2023-05-11T04:55:13.642Z,12.40
2023-05-11T04:57:41.753Z,12.40
2023-05-11T05:00:12.376Z,12.30
2023-05-11T05:02:40.589Z,12.30
2023-05-11T05:05:09.697Z,12.30
2023-05-11T05:07:37.803Z,12.30
2023-05-11T05:10:08.978Z,12.30
2023-05-11T05:12:37.438Z,12.20
2023-05-11T05:15:06.668Z,12.20
2023-05-11T05:17:36.195Z,12.30
2023-05-11T05:20:04.609Z,12.30
2023-05-11T05:22:32.856Z,12.40
2023-05-11T05:25:01.062Z,12.60
2023-05-11T05:27:29.219Z,12.60
2023-05-11T05:29:57.331Z,12.70
2023-05-11T05:32:25.459Z,12.80
2023-05-11T05:34:55.016Z,12.70
2023-05-11T05:37:23.175Z,12.80
2023-05-11T05:39:51.297Z,13.00
2023-05-11T05:42:19.538Z,13.10
2023-05-11T05:44:47.988Z,13.10
2023-05-11T05:47:16.285Z,13.20
2023-05-11T05:49:44.441Z,13.20
2023-05-11T05:52:14.015Z,13.30
2023-05-11T05:54:42.085Z,13.40
2023-05-11T05:57:10.193Z,13.40
2023-05-11T05:59:38.358Z,13.50
2023-05-11T06:02:07.375Z,13.60
2023-05-11T06:04:36.526Z,13.90
2023-05-11T06:07:04.793Z,13.90
2023-05-11T06:09:34.200Z,14.00
2023-05-11T06:12:02.318Z,14.00
2023-05-11T06:14:31.665Z,14.00
2023-05-11T06:16:59.815Z,14.00
2023-05-11T06:19:27.903Z,14.20
2023-05-11T06:21:55.948Z,14.20
2023-05-11T06:24:24.033Z,14.30
2023-05-11T06:26:53.470Z,14.40
2023-05-11T06:29:22.329Z,14.50
2023-05-11T06:31:52.751Z,14.60
2023-05-11T06:34:21.143Z,14.60
2023-05-11T06:36:49.298Z,14.60
2023-05-11T06:39:18.523Z,14.70
2023-05-11T06:41:46.584Z,14.70
2023-05-11T06:44:15.983Z,14.80
2023-05-11T06:46:45.059Z,14.90
2023-05-11T06:49:13.190Z,14.90
2023-05-11T06:51:41.313Z,15.10
2023-05-11T06:54:10.557Z,14.90
2023-05-11T06:56:38.714Z,15.10
2023-05-11T06:59:06.834Z,15.30
2023-05-11T07:01:36.439Z,15.20
2023-05-11T07:04:04.889Z,15.20
2023-05-11T07:06:33.177Z,15.30
2023-05-11T07:09:01.342Z,15.40
2023-05-11T07:11:29.818Z,15.40
2023-05-11T07:13:57.865Z,15.30
2023-05-11T07:16:25.979Z,15.40
2023-05-11T07:18:55.610Z,15.60
2023-05-11T07:21:23.788Z,15.60
2023-05-11T07:23:52.528Z,15.70
2023-05-11T07:26:22.082Z,15.70
2023-05-11T07:28:50.174Z,15.80
2023-05-11T07:31:18.260Z,15.90
2023-05-11T07:33:46.386Z,15.80
2023-05-11T07:36:15.888Z,15.60
2023-05-11T07:38:43.997Z,15.60
2023-05-11T07:41:12.828Z,15.80
2023-05-11T07:43:41.600Z,15.90
2023-05-11T07:46:09.687Z,15.90
2023-05-11T07:48:37.749Z,15.90
2023-05-11T07:51:07.587Z,15.90
2023-05-11T07:53:37.338Z,15.80
2023-05-11T07:56:06.146Z,15.80
2023-05-11T07:58:34.281Z,15.90
2023-05-11T08:01:02.482Z,16.00
2023-05-11T08:03:30.588Z,16.10
2023-05-11T08:05:59.064Z,16.10
2023-05-11T08:08:27.253Z,16.00
2023-05-11T08:10:56.706Z,16.00
2023-05-11T08:13:25.896Z,15.90
2023-05-11T08:15:54.065Z,16.00
2023-05-11T08:18:22.366Z,16.10
2023-05-11T08:20:50.569Z,16.10
2023-05-11T08:23:18.777Z,16.30
2023-05-11T08:25:53.633Z,16.30
2023-05-11T08:28:23.630Z,16.30
2023-05-11T08:31:01.628Z,16.40
2023-05-11T08:36:00.844Z,16.60
2023-05-11T08:38:29.002Z,16.50
2023-05-11T08:40:57.032Z,16.60
2023-05-11T08:43:28.788Z,16.60
2023-05-11T08:46:01.799Z,16.60
2023-05-11T08:48:31.341Z,16.50
2023-05-11T08:51:00.821Z,16.40
2023-05-11T08:53:29.314Z,16.50
2023-05-11T08:56:00.070Z,16.50
2023-05-11T08:58:30.864Z,16.50
2023-05-11T09:01:00.006Z,16.70
2023-05-11T09:03:30.485Z,16.80
2023-05-11T09:05:59.694Z,17.00
2023-05-11T09:08:31.518Z,17.30
2023-05-11T09:11:00.381Z,17.40
2023-05-11T09:13:30.886Z,17.40
2023-05-11T09:15:58.863Z,17.40
2023-05-11T09:18:28.471Z,17.80
2023-05-11T09:20:56.655Z,18.10
2023-05-11T09:23:27.516Z,18.50
2023-05-11T09:25:56.072Z,19.40
2023-05-11T09:28:25.994Z,19.50
2023-05-11T09:30:55.568Z,20.00
2023-05-11T09:33:25.705Z,19.80
2023-05-11T09:35:54.322Z,19.70
2023-05-11T09:38:26.321Z,19.60
2023-05-11T09:40:56.168Z,19.90
2023-05-11T09:43:26.865Z,19.10
2023-05-11T09:45:58.408Z,18.70
2023-05-11T09:48:29.262Z,19.10
2023-05-11T09:51:03.805Z,20.00
2023-05-11T09:53:43.886Z,19.80
2023-05-11T09:56:12.707Z,19.80
2023-05-11T09:58:52.174Z,19.80
2023-05-11T10:01:32.392Z,20.20
2023-05-11T10:04:13.311Z,20.30
2023-05-11T10:06:52.908Z,20.30
2023-05-11T10:09:25.342Z,20.60
2023-05-11T10:11:54.838Z,20.20
2023-05-11T10:14:25.853Z,20.40
2023-05-11T10:16:58.567Z,20.80
2023-05-11T10:19:27.107Z,20.40
2023-05-11T10:21:57.627Z,20.60
2023-05-11T10:24:26.317Z,20.90
2023-05-11T10:26:55.009Z,21.20
2023-05-11T10:29:23.620Z,21.30
2023-05-11T10:31:52.829Z,21.30
2023-05-11T10:34:23.933Z,21.30
2023-05-11T10:36:53.858Z,21.00
2023-05-11T10:39:22.503Z,21.30
2023-05-11T10:42:06.346Z,21.30
2023-05-11T10:45:06.902Z,21.60
2023-05-11T10:48:10.836Z,21.90
2023-05-11T10:51:13.283Z,21.60
2023-05-11T10:53:57.815Z,21.50
2023-05-11T10:56:37.814Z,21.30
2023-05-11T10:59:25.806Z,21.80
2023-05-11T11:01:58.941Z,21.80
2023-05-11T11:04:42.076Z,22.60
2023-05-11T11:07:11.694Z,23.00
2023-05-11T11:09:57.307Z,22.70
2023-05-11T11:12:27.321Z,22.40
2023-05-11T11:14:56.968Z,21.70
2023-05-11T11:17:27.520Z,21.70
2023-05-11T11:19:57.409Z,21.80
2023-05-11T11:22:49.990Z,21.70
2023-05-11T11:25:54.889Z,21.70
2023-05-11T11:28:23.112Z,21.30
2023-05-11T11:31:25.401Z,21.00
2023-05-11T11:33:53.594Z,20.70
2023-05-11T11:36:55.000Z,20.40
2023-05-11T11:39:25.471Z,20.20
2023-05-11T11:42:01.387Z,20.00
2023-05-11T11:44:29.669Z,19.80
2023-05-11T11:47:14.672Z,19.50
2023-05-11T11:49:44.871Z,19.20
2023-05-11T11:52:13.863Z,19.10
2023-05-11T11:54:42.910Z,19.10
2023-05-11T11:57:44.125Z,18.70
2023-05-11T12:00:14.269Z,18.20
2023-05-11T12:02:44.847Z,17.70
2023-05-11T12:05:14.621Z,17.40
2023-05-11T12:07:45.948Z,17.10
2023-05-11T12:10:14.985Z,17.10
2023-05-11T12:12:46.180Z,16.70
2023-05-11T12:15:24.610Z,16.50
2023-05-11T12:17:54.110Z,16.40
2023-05-11T12:20:22.705Z,16.00
2023-05-11T12:22:51.447Z,15.90
2023-05-11T12:25:20.795Z,15.50
2023-05-11T12:27:50.837Z,15.50
2023-05-11T12:30:23.558Z,15.00
2023-05-11T12:35:25.507Z,15.30
2023-05-11T12:37:54.352Z,15.30
2023-05-11T12:40:22.485Z,15.20
2023-05-11T12:42:54.480Z,14.90
2023-05-11T12:45:24.708Z,14.80
2023-05-11T12:47:56.075Z,14.80
2023-05-11T12:50:24.259Z,14.90
2023-05-11T12:52:52.888Z,15.00
2023-05-11T12:55:30.690Z,15.20
2023-05-11T12:58:10.008Z,15.20
2023-05-11T13:00:38.484Z,15.30
2023-05-11T13:03:11.257Z,15.20
2023-05-11T13:05:39.929Z,15.10
2023-05-11T13:08:08.604Z,15.20
2023-05-11T13:10:36.804Z,15.10
2023-05-11T13:13:04.918Z,15.10
2023-05-11T13:15:33.547Z,15.10
2023-05-11T13:18:03.444Z,14.90
2023-05-11T13:20:34.303Z,14.90
2023-05-11T13:23:07.302Z,14.90
2023-05-11T13:25:51.588Z,15.10
2023-05-11T13:28:21.293Z,15.20
2023-05-11T13:30:51.211Z,15.10
2023-05-11T13:33:19.591Z,15.00
2023-05-11T13:35:49.073Z,14.90
2023-05-11T13:38:17.416Z,14.90
2023-05-11T13:40:45.794Z,14.70
2023-05-11T13:43:13.908Z,14.50
2023-05-11T13:45:42.065Z,14.50
2023-05-11T13:48:10.766Z,14.50
2023-05-11T13:50:39.011Z,14.40
2023-05-11T13:53:08.395Z,14.40
2023-05-11T13:55:38.057Z,14.50
2023-05-11T13:58:06.388Z,14.50
2023-05-11T14:00:35.209Z,14.50
2023-05-11T14:03:04.038Z,14.50
2023-05-11T14:05:32.509Z,14.50
2023-05-11T14:08:00.600Z,14.90
2023-05-11T14:10:30.080Z,14.90
2023-05-11T14:12:58.215Z,14.90
2023-05-11T14:15:26.266Z,15.20
2023-05-11T14:17:54.810Z,15.50
2023-05-11T14:20:23.107Z,15.60
2023-05-11T14:22:51.180Z,15.50
2023-05-11T14:25:19.519Z,15.60
2023-05-11T14:27:49.864Z,15.70
2023-05-11T14:30:17.923Z,15.70
2023-05-11T14:32:46.043Z,15.70
2023-05-11T14:35:14.510Z,15.70
2023-05-11T14:37:42.584Z,15.70
2023-05-11T14:40:11.105Z,15.70
2023-05-11T14:42:39.120Z,15.70
2023-05-11T14:45:09.831Z,15.60
2023-05-11T14:47:38.091Z,15.80
2023-05-11T14:50:07.319Z,15.80
2023-05-11T14:52:35.593Z,15.80
2023-05-11T14:55:03.701Z,16.00
2023-05-11T14:57:31.848Z,16.10
2023-05-11T15:00:00.668Z,16.20
2023-05-11T15:02:30.673Z,16.30
2023-05-11T15:04:58.815Z,16.20
2023-05-11T15:07:26.972Z,16.40
2023-05-11T15:09:55.981Z,16.40
2023-05-11T15:12:24.647Z,16.50
2023-05-11T15:14:52.790Z,16.50
2023-05-11T15:17:20.989Z,16.50
2023-05-11T15:19:50.447Z,16.50
2023-05-11T15:22:19.212Z,16.60
2023-05-11T15:24:47.475Z,16.50
2023-05-11T15:27:16.008Z,16.60
2023-05-11T15:29:45.266Z,16.70
2023-05-11T15:32:15.262Z,16.60
2023-05-11T15:34:55.537Z,16.60
2023-05-11T15:37:30.790Z,16.60
2023-05-11T15:39:58.873Z,16.70
2023-05-11T15:42:27.048Z,16.70
2023-05-11T15:44:55.145Z,16.60
2023-05-11T15:47:23.466Z,16.70
2023-05-11T15:49:52.631Z,16.70
2023-05-11T15:52:20.824Z,16.70
2023-05-11T15:54:50.257Z,16.80
2023-05-11T15:57:18.378Z,16.80
2023-05-11T15:59:47.663Z,16.90
2023-05-11T16:02:16.026Z,16.90
2023-05-11T16:04:44.109Z,16.90
2023-05-11T16:07:12.160Z,16.90
2023-05-11T16:09:40.370Z,16.90
2023-05-11T16:12:10.477Z,17.00
2023-05-11T16:14:38.540Z,17.00
2023-05-11T16:17:07.953Z,17.20
2023-05-11T16:19:36.024Z,17.10
2023-05-11T16:22:04.147Z,17.10
2023-05-11T16:24:34.330Z,17.20
2023-05-11T16:27:02.982Z,17.20
2023-05-11T16:29:32.478Z,17.10
2023-05-11T16:32:00.946Z,17.10
2023-05-11T16:34:29.129Z,17.00
2023-05-11T16:36:58.970Z,17.10
2023-05-11T16:39:27.775Z,17.10
2023-05-11T16:41:55.891Z,17.20
2023-05-11T16:44:24.605Z,17.10
2023-05-11T16:46:54.242Z,17.10
2023-05-11T16:49:22.457Z,17.10
2023-05-11T16:51:51.649Z,17.00
2023-05-11T16:54:20.907Z,16.90
2023-05-11T16:56:49.109Z,16.90
2023-05-11T16:59:17.170Z,16.90
2023-05-11T17:01:46.044Z,16.90
2023-05-11T17:04:15.794Z,16.90
2023-05-11T17:06:44.179Z,16.90
2023-05-11T17:09:12.227Z,16.80
2023-05-11T17:11:40.291Z,16.80
2023-05-11T17:14:08.349Z,16.80
2023-05-11T17:16:36.578Z,16.70
2023-05-11T17:19:05.236Z,16.60
2023-05-11T17:21:34.867Z,16.20
2023-05-11T17:24:02.982Z,15.90
2023-05-11T17:26:39.560Z,15.70
2023-05-11T17:29:15.803Z,15.40
2023-05-11T17:31:46.346Z,15.30
2023-05-11T17:34:14.923Z,15.00
2023-05-11T17:36:44.609Z,14.80
2023-05-11T17:39:13.174Z,14.90
2023-05-11T17:41:41.320Z,14.80
2023-05-11T17:44:09.528Z,14.70
2023-05-11T17:46:38.284Z,14.70
2023-05-11T17:49:06.866Z,14.80
2023-05-11T17:51:35.102Z,14.70
2023-05-11T17:54:04.840Z,14.80
2023-05-11T17:56:32.945Z,14.60
2023-05-11T17:59:01.099Z,14.50
2023-05-11T18:01:29.244Z,14.70
2023-05-11T18:03:59.238Z,14.70
2023-05-11T18:06:28.375Z,14.70
2023-05-11T18:08:56.677Z,14.70
2023-05-11T18:11:27.112Z,14.70
2023-05-11T18:13:55.348Z,14.70
2023-05-11T18:16:23.504Z,14.60
2023-05-11T18:18:51.696Z,14.70
2023-05-11T18:21:19.865Z,14.70
2023-05-11T18:23:47.971Z,14.70
2023-05-11T18:26:17.373Z,14.70
2023-05-11T18:28:47.078Z,14.70
2023-05-11T18:31:17.483Z,14.70
2023-05-11T18:33:46.697Z,14.80
2023-05-11T18:36:15.774Z,14.80
2023-05-11T18:38:45.201Z,14.80
2023-05-11T18:41:13.277Z,14.70
2023-05-11T18:43:42.974Z,14.60
2023-05-11T18:46:12.636Z,14.70
2023-05-11T18:48:40.655Z,14.80
2023-05-11T18:51:08.726Z,14.70
2023-05-11T18:53:36.852Z,14.70
2023-05-11T18:56:05.467Z,14.70
2023-05-11T18:58:33.775Z,14.60
2023-05-11T19:01:01.927Z,14.60
2023-05-11T19:03:32.351Z,14.60
2023-05-11T19:06:01.075Z,14.60
2023-05-11T19:08:29.452Z,14.60
2023-05-11T19:10:57.701Z,14.60
2023-05-11T19:13:25.997Z,14.60
2023-05-11T19:15:54.071Z,14.60
2023-05-11T19:18:22.197Z,14.60
2023-05-11T19:20:51.719Z,14.50
2023-05-11T19:23:20.157Z,14.50
2023-05-11T19:25:48.276Z,14.50
2023-05-11T19:28:16.418Z,14.50
2023-05-11T19:30:44.486Z,14.50
2023-05-11T19:33:12.841Z,14.40
2023-05-11T19:35:41.205Z,14.50
2023-05-11T19:38:10.621Z,14.40
2023-05-11T19:40:45.425Z,14.40
2023-05-11T19:43:14.559Z,14.40
2023-05-11T19:45:43.628Z,14.30
2023-05-11T19:48:12.068Z,14.40
2023-05-11T19:50:40.302Z,14.40
2023-05-11T19:53:09.795Z,14.30
2023-05-11T19:55:37.858Z,14.30
2023-05-11T19:58:06.869Z,14.40
2023-05-11T20:00:35.118Z,14.40
2023-05-11T20:03:03.378Z,14.30
2023-05-11T20:05:31.568Z,14.30
2023-05-11T20:08:02.063Z,14.30
2023-05-11T20:10:31.534Z,14.30
2023-05-11T20:12:59.661Z,14.30
2023-05-11T20:15:27.652Z,14.30
2023-05-11T20:17:55.790Z,14.30
2023-05-11T20:20:24.164Z,14.30
2023-05-11T20:22:52.361Z,14.20
2023-05-11T20:25:20.474Z,14.20
2023-05-11T20:27:50.172Z,14.20
2023-05-11T20:30:18.683Z,14.20
2023-05-11T20:35:19.376Z,14.20
2023-05-11T20:37:47.881Z,14.10
2023-05-11T20:40:16.145Z,14.20
2023-05-11T20:42:44.251Z,14.10
2023-05-11T20:45:13.845Z,14.10
2023-05-11T20:47:41.996Z,14.10
2023-05-11T20:50:10.915Z,14.10
2023-05-11T20:52:39.350Z,14.10
2023-05-11T20:55:08.311Z,14.10
2023-05-11T20:57:36.437Z,14.10
2023-05-11T21:00:07.411Z,14.10
2023-05-11T21:02:37.019Z,14.10
2023-05-11T21:05:05.362Z,14.00
2023-05-11T21:07:33.476Z,14.00
2023-05-11T21:10:01.777Z,14.00
2023-05-11T21:12:29.811Z,14.00
2023-05-11T21:14:57.907Z,14.00
2023-05-11T21:17:26.026Z,14.00
2023-05-11T21:19:55.500Z,14.00
2023-05-11T21:22:23.562Z,14.00
2023-05-11T21:24:51.610Z,14.00
2023-05-11T21:27:20.419Z,14.00
2023-05-11T21:29:49.178Z,14.00
2023-05-11T21:32:17.253Z,14.00
2023-05-11T21:34:45.312Z,14.00
2023-05-11T21:37:15.954Z,14.00
2023-05-11T21:39:44.060Z,14.00
2023-05-11T21:42:12.108Z,14.00
2023-05-11T21:44:40.179Z,14.00
2023-05-11T21:47:08.571Z,14.00
2023-05-11T21:49:36.833Z,13.90
2023-05-11T21:52:05.850Z,13.90
2023-05-11T21:54:35.466Z,13.90
2023-05-11T21:57:03.727Z,13.90
2023-05-11T21:59:31.788Z,13.90
2023-05-11T22:01:59.937Z,13.90
2023-05-11T22:04:28.064Z,13.90
2023-05-11T22:06:59.659Z,13.80
2023-05-11T22:09:30.007Z,13.80
2023-05-11T22:11:59.455Z,13.80
2023-05-11T22:14:27.608Z,13.80
2023-05-11T22:16:55.700Z,13.80
2023-05-11T22:19:23.833Z,13.70
2023-05-11T22:21:51.951Z,13.70
2023-05-11T22:24:21.257Z,13.50
2023-05-11T22:26:49.389Z,13.60
2023-05-11T22:29:18.810Z,13.60
2023-05-11T22:31:46.910Z,13.60
2023-05-11T22:34:15.088Z,13.60
2023-05-11T22:36:43.269Z,13.60
2023-05-11T22:39:12.247Z,13.70
2023-05-11T22:41:40.327Z,13.60
2023-05-11T22:44:08.956Z,13.50
2023-05-11T22:46:38.356Z,13.50
2023-05-11T22:49:06.469Z,13.50
2023-05-11T22:51:34.509Z,13.50
2023-05-11T22:54:03.431Z,13.50
2023-05-11T22:56:32.119Z,13.50
2023-05-11T22:59:00.347Z,13.50
2023-05-11T23:01:28.829Z,13.50
2023-05-11T23:03:58.575Z,13.50
2023-05-11T23:06:26.740Z,13.50
2023-05-11T23:08:54.805Z,13.50
2023-05-11T23:11:23.116Z,13.50
2023-05-11T23:13:51.481Z,13.60
2023-05-11T23:16:19.597Z,13.60
2023-05-11T23:18:47.813Z,13.60
2023-05-11T23:21:17.895Z,13.50
2023-05-11T23:23:46.342Z,13.50
2023-05-11T23:26:14.870Z,13.40
2023-05-11T23:28:43.184Z,13.50
2023-05-11T23:31:11.513Z,13.50
2023-05-11T23:33:40.311Z,13.40
2023-05-11T23:36:09.609Z,13.40
2023-05-11T23:38:39.100Z,13.40
2023-05-11T23:41:07.244Z,13.40
2023-05-11T23:43:35.322Z,13.30
2023-05-11T23:46:03.469Z,13.30
2023-05-11T23:48:31.519Z,13.30
2023-05-11T23:50:59.704Z,13.30
2023-05-11T23:53:27.788Z,13.30
2023-05-11T23:55:57.200Z,13.10
2023-05-11T23:58:25.384Z,13.10
